sensor_id;sensor_type;location;lat;lon;timestamp;P1;durP1;ratioP1;P2;durP2;ratioP2
11394;SDS011;5753;54.402;10.220;2022-10-15T00:01:55;15.27;;;10.93;;
11394;SDS011;5753;54.402;10.220;2022-10-15T00:04:21;14.52;;;11.15;;
11394;SDS011;5753;54.402;10.220;2022-10-15T00:06:47;15.23;;;9.68;;
11394;SDS011;5753;54.402;10.220;2022-10-15T00:09:14;19.75;;;13.55;;
11394;SDS011;5753;54.402;10.220;2022-10-15T00:11:40;14.52;;;11.00;;
11394;SDS011;5753;54.402;10.220;2022-10-15T00:14:06;16.10;;;12.00;;
11394;SDS011;5753;54.402;10.220;2022-10-15T00:16:32;20.25;;;12.88;;
11394;SDS011;5753;54.402;10.220;2022-10-15T00:18:58;15.20;;;12.73;;
11394;SDS011;5753;54.402;10.220;2022-10-15T00:21:25;14.73;;;11.93;;
11394;SDS011;5753;54.402;10.220;2022-10-15T00:23:51;16.02;;;14.18;;
11394;SDS011;5753;54.402;10.220;2022-10-15T00:26:19;20.02;;;12.25;;
11394;SDS011;5753;54.402;10.220;2022-10-15T00:28:47;17.08;;;13.85;;
11394;SDS011;5753;54.402;10.220;2022-10-15T00:31:16;21.42;;;13.32;;
11394;SDS011;5753;54.402;10.220;2022-10-15T00:33:48;17.67;;;11.50;;
11394;SDS011;5753;54.402;10.220;2022-10-15T00:36:17;16.50;;;11.77;;
11394;SDS011;5753;54.402;10.220;2022-10-15T00:38:45;29.60;;;13.02;;
11394;SDS011;5753;54.402;10.220;2022-10-15T00:41:13;15.27;;;12.30;;
11394;SDS011;5753;54.402;10.220;2022-10-15T00:48:41;16.17;;;13.75;;
11394;SDS011;5753;54.402;10.220;2022-10-15T00:51:10;23.98;;;17.75;;
11394;SDS011;5753;54.402;10.220;2022-10-15T00:53:36;23.85;;;16.92;;
11394;SDS011;5753;54.402;10.220;2022-10-15T00:56:03;20.02;;;14.40;;
11394;SDS011;5753;54.402;10.220;2022-10-15T00:58:30;22.05;;;15.68;;
11394;SDS011;5753;54.402;10.220;2022-10-15T01:00:58;21.92;;;15.80;;
11394;SDS011;5753;54.402;10.220;2022-10-15T01:03:25;24.98;;;17.10;;
11394;SDS011;5753;54.402;10.220;2022-10-15T01:05:51;23.75;;;13.98;;
11394;SDS011;5753;54.402;10.220;2022-10-15T01:08:18;18.02;;;13.65;;
11394;SDS011;5753;54.402;10.220;2022-10-15T01:16:13;20.85;;;14.70;;
11394;SDS011;5753;54.402;10.220;2022-10-15T01:18:53;19.27;;;14.15;;
11394;SDS011;5753;54.402;10.220;2022-10-15T01:21:37;17.50;;;14.68;;
11394;SDS011;5753;54.402;10.220;2022-10-15T01:27:13;20.65;;;14.02;;
11394;SDS011;5753;54.402;10.220;2022-10-15T01:32:29;20.42;;;14.52;;
11394;SDS011;5753;54.402;10.220;2022-10-15T01:40:16;14.90;;;11.90;;
11394;SDS011;5753;54.402;10.220;2022-10-15T01:43:02;19.85;;;15.65;;
11394;SDS011;5753;54.402;10.220;2022-10-15T01:45:37;16.85;;;13.38;;
11394;SDS011;5753;54.402;10.220;2022-10-15T01:48:10;23.15;;;16.00;;
11394;SDS011;5753;54.402;10.220;2022-10-15T01:50:38;19.25;;;12.63;;
11394;SDS011;5753;54.402;10.220;2022-10-15T01:53:10;18.88;;;12.73;;
11394;SDS011;5753;54.402;10.220;2022-10-15T01:55:41;16.75;;;14.20;;
11394;SDS011;5753;54.402;10.220;2022-10-15T01:58:11;20.52;;;13.30;;
11394;SDS011;5753;54.402;10.220;2022-10-15T02:00:40;20.90;;;15.63;;
11394;SDS011;5753;54.402;10.220;2022-10-15T02:03:07;21.02;;;15.93;;
11394;SDS011;5753;54.402;10.220;2022-10-15T02:05:36;19.58;;;14.55;;
11394;SDS011;5753;54.402;10.220;2022-10-15T02:08:15;27.38;;;15.95;;
11394;SDS011;5753;54.402;10.220;2022-10-15T02:16:01;20.80;;;15.68;;
11394;SDS011;5753;54.402;10.220;2022-10-15T02:18:39;22.77;;;17.85;;
11394;SDS011;5753;54.402;10.220;2022-10-15T02:21:13;21.33;;;16.00;;
11394;SDS011;5753;54.402;10.220;2022-10-15T02:23:49;23.75;;;15.85;;
11394;SDS011;5753;54.402;10.220;2022-10-15T02:26:18;23.30;;;18.20;;
11394;SDS011;5753;54.402;10.220;2022-10-15T02:28:49;21.20;;;17.80;;
11394;SDS011;5753;54.402;10.220;2022-10-15T02:31:18;23.17;;;16.58;;
11394;SDS011;5753;54.402;10.220;2022-10-15T02:33:51;31.35;;;18.63;;
11394;SDS011;5753;54.402;10.220;2022-10-15T02:36:22;26.55;;;18.45;;
11394;SDS011;5753;54.402;10.220;2022-10-15T02:38:48;27.50;;;17.42;;
11394;SDS011;5753;54.402;10.220;2022-10-15T02:41:18;25.52;;;19.33;;
11394;SDS011;5753;54.402;10.220;2022-10-15T02:43:45;21.52;;;16.48;;
11394;SDS011;5753;54.402;10.220;2022-10-15T02:46:12;24.88;;;18.02;;
11394;SDS011;5753;54.402;10.220;2022-10-15T02:48:40;29.60;;;21.23;;
11394;SDS011;5753;54.402;10.220;2022-10-15T02:51:06;25.33;;;19.83;;
11394;SDS011;5753;54.402;10.220;2022-10-15T02:53:32;26.35;;;18.95;;
11394;SDS011;5753;54.402;10.220;2022-10-15T02:55:58;29.90;;;20.55;;
11394;SDS011;5753;54.402;10.220;2022-10-15T02:58:24;30.67;;;19.65;;
11394;SDS011;5753;54.402;10.220;2022-10-15T03:00:50;24.13;;;17.38;;
11394;SDS011;5753;54.402;10.220;2022-10-15T03:03:17;29.58;;;21.40;;
11394;SDS011;5753;54.402;10.220;2022-10-15T03:05:43;27.50;;;22.33;;
11394;SDS011;5753;54.402;10.220;2022-10-15T03:08:09;27.85;;;19.63;;
11394;SDS011;5753;54.402;10.220;2022-10-15T03:10:35;34.13;;;21.42;;
11394;SDS011;5753;54.402;10.220;2022-10-15T03:13:02;30.98;;;22.17;;
11394;SDS011;5753;54.402;10.220;2022-10-15T03:15:29;31.75;;;18.33;;
11394;SDS011;5753;54.402;10.220;2022-10-15T03:17:55;29.90;;;19.25;;
11394;SDS011;5753;54.402;10.220;2022-10-15T03:20:22;27.55;;;20.63;;
11394;SDS011;5753;54.402;10.220;2022-10-15T03:22:48;38.58;;;22.13;;
11394;SDS011;5753;54.402;10.220;2022-10-15T03:25:14;34.67;;;26.20;;
11394;SDS011;5753;54.402;10.220;2022-10-15T03:27:40;30.50;;;24.13;;
11394;SDS011;5753;54.402;10.220;2022-10-15T03:30:07;34.67;;;21.80;;
11394;SDS011;5753;54.402;10.220;2022-10-15T03:32:33;32.67;;;22.02;;
11394;SDS011;5753;54.402;10.220;2022-10-15T03:34:59;34.00;;;23.08;;
11394;SDS011;5753;54.402;10.220;2022-10-15T03:37:25;40.47;;;22.35;;
11394;SDS011;5753;54.402;10.220;2022-10-15T03:39:51;32.00;;;22.63;;
11394;SDS011;5753;54.402;10.220;2022-10-15T03:42:17;35.45;;;24.13;;
11394;SDS011;5753;54.402;10.220;2022-10-15T03:44:44;31.70;;;20.88;;
11394;SDS011;5753;54.402;10.220;2022-10-15T03:47:10;37.25;;;25.63;;
11394;SDS011;5753;54.402;10.220;2022-10-15T03:49:36;32.60;;;23.23;;
11394;SDS011;5753;54.402;10.220;2022-10-15T03:52:02;30.17;;;21.67;;
11394;SDS011;5753;54.402;10.220;2022-10-15T03:54:28;30.40;;;20.48;;
11394;SDS011;5753;54.402;10.220;2022-10-15T03:56:55;32.78;;;23.73;;
11394;SDS011;5753;54.402;10.220;2022-10-15T03:59:21;30.85;;;19.63;;
11394;SDS011;5753;54.402;10.220;2022-10-15T04:01:47;31.63;;;21.63;;
11394;SDS011;5753;54.402;10.220;2022-10-15T04:04:14;32.75;;;21.75;;
11394;SDS011;5753;54.402;10.220;2022-10-15T04:06:40;31.98;;;21.60;;
11394;SDS011;5753;54.402;10.220;2022-10-15T04:09:06;31.05;;;19.73;;
11394;SDS011;5753;54.402;10.220;2022-10-15T04:11:34;28.15;;;18.63;;
11394;SDS011;5753;54.402;10.220;2022-10-15T04:14:00;36.38;;;23.35;;
11394;SDS011;5753;54.402;10.220;2022-10-15T04:16:27;33.88;;;19.50;;
11394;SDS011;5753;54.402;10.220;2022-10-15T04:18:53;27.70;;;17.02;;
11394;SDS011;5753;54.402;10.220;2022-10-15T04:23:48;28.98;;;17.52;;
11394;SDS011;5753;54.402;10.220;2022-10-15T04:26:14;33.88;;;22.30;;
11394;SDS011;5753;54.402;10.220;2022-10-15T04:28:40;29.05;;;21.88;;
11394;SDS011;5753;54.402;10.220;2022-10-15T04:31:06;30.55;;;17.98;;
11394;SDS011;5753;54.402;10.220;2022-10-15T04:33:33;31.73;;;21.60;;
11394;SDS011;5753;54.402;10.220;2022-10-15T04:36:04;27.73;;;17.52;;
11394;SDS011;5753;54.402;10.220;2022-10-15T04:38:36;25.23;;;16.73;;
11394;SDS011;5753;54.402;10.220;2022-10-15T04:41:03;33.63;;;20.80;;
11394;SDS011;5753;54.402;10.220;2022-10-15T04:43:34;34.53;;;24.42;;
11394;SDS011;5753;54.402;10.220;2022-10-15T04:46:02;24.25;;;19.45;;
11394;SDS011;5753;54.402;10.220;2022-10-15T04:48:30;33.70;;;22.95;;
11394;SDS011;5753;54.402;10.220;2022-10-15T04:51:11;25.05;;;17.92;;
11394;SDS011;5753;54.402;10.220;2022-10-15T04:53:39;27.25;;;19.95;;
11394;SDS011;5753;54.402;10.220;2022-10-15T04:56:07;24.25;;;16.27;;
11394;SDS011;5753;54.402;10.220;2022-10-15T05:01:06;23.92;;;19.25;;
11394;SDS011;5753;54.402;10.220;2022-10-15T05:03:37;29.48;;;19.45;;
11394;SDS011;5753;54.402;10.220;2022-10-15T05:06:06;23.83;;;17.60;;
11394;SDS011;5753;54.402;10.220;2022-10-15T05:08:34;26.75;;;18.73;;
11394;SDS011;5753;54.402;10.220;2022-10-15T05:11:02;35.47;;;19.60;;
11394;SDS011;5753;54.402;10.220;2022-10-15T05:13:29;27.90;;;18.77;;
11394;SDS011;5753;54.402;10.220;2022-10-15T05:15:56;31.42;;;18.05;;
11394;SDS011;5753;54.402;10.220;2022-10-15T05:18:32;25.77;;;16.83;;
11394;SDS011;5753;54.402;10.220;2022-10-15T05:21:00;30.77;;;17.88;;
11394;SDS011;5753;54.402;10.220;2022-10-15T05:23:26;29.08;;;17.20;;
11394;SDS011;5753;54.402;10.220;2022-10-15T05:25:52;25.80;;;17.90;;
11394;SDS011;5753;54.402;10.220;2022-10-15T05:28:18;25.20;;;16.17;;
11394;SDS011;5753;54.402;10.220;2022-10-15T05:30:44;24.60;;;18.42;;
11394;SDS011;5753;54.402;10.220;2022-10-15T05:33:10;19.73;;;14.45;;
11394;SDS011;5753;54.402;10.220;2022-10-15T05:35:36;22.88;;;15.43;;
11394;SDS011;5753;54.402;10.220;2022-10-15T05:38:03;28.98;;;18.30;;
11394;SDS011;5753;54.402;10.220;2022-10-15T05:40:29;25.52;;;17.85;;
11394;SDS011;5753;54.402;10.220;2022-10-15T05:42:55;24.27;;;15.63;;
11394;SDS011;5753;54.402;10.220;2022-10-15T05:45:21;26.65;;;15.85;;
11394;SDS011;5753;54.402;10.220;2022-10-15T05:47:48;25.75;;;15.50;;
11394;SDS011;5753;54.402;10.220;2022-10-15T05:50:17;26.17;;;14.85;;
11394;SDS011;5753;54.402;10.220;2022-10-15T05:52:43;37.15;;;17.15;;
11394;SDS011;5753;54.402;10.220;2022-10-15T05:55:09;24.40;;;16.75;;
11394;SDS011;5753;54.402;10.220;2022-10-15T05:57:35;25.63;;;15.70;;
11394;SDS011;5753;54.402;10.220;2022-10-15T06:00:03;33.35;;;16.30;;
11394;SDS011;5753;54.402;10.220;2022-10-15T06:02:30;28.15;;;15.75;;
11394;SDS011;5753;54.402;10.220;2022-10-15T06:04:56;26.65;;;16.13;;
11394;SDS011;5753;54.402;10.220;2022-10-15T06:07:22;21.17;;;15.88;;
11394;SDS011;5753;54.402;10.220;2022-10-15T06:09:48;24.45;;;15.23;;
11394;SDS011;5753;54.402;10.220;2022-10-15T06:12:14;28.20;;;16.75;;
11394;SDS011;5753;54.402;10.220;2022-10-15T06:14:40;18.60;;;13.65;;
11394;SDS011;5753;54.402;10.220;2022-10-15T06:17:06;33.80;;;18.45;;
11394;SDS011;5753;54.402;10.220;2022-10-15T06:19:32;27.30;;;16.70;;
11394;SDS011;5753;54.402;10.220;2022-10-15T06:21:59;25.80;;;17.33;;
11394;SDS011;5753;54.402;10.220;2022-10-15T06:24:25;30.65;;;16.50;;
11394;SDS011;5753;54.402;10.220;2022-10-15T06:26:51;24.30;;;16.00;;
11394;SDS011;5753;54.402;10.220;2022-10-15T06:29:17;30.30;;;17.77;;
11394;SDS011;5753;54.402;10.220;2022-10-15T06:31:43;28.70;;;19.30;;
11394;SDS011;5753;54.402;10.220;2022-10-15T06:34:09;26.58;;;16.90;;
11394;SDS011;5753;54.402;10.220;2022-10-15T06:36:36;36.58;;;16.83;;
11394;SDS011;5753;54.402;10.220;2022-10-15T06:39:02;34.80;;;18.27;;
11394;SDS011;5753;54.402;10.220;2022-10-15T06:41:28;33.72;;;21.13;;
11394;SDS011;5753;54.402;10.220;2022-10-15T06:43:54;34.30;;;19.75;;
11394;SDS011;5753;54.402;10.220;2022-10-15T06:46:20;26.52;;;17.52;;
11394;SDS011;5753;54.402;10.220;2022-10-15T06:48:46;30.40;;;16.80;;
11394;SDS011;5753;54.402;10.220;2022-10-15T06:51:13;29.88;;;18.33;;
11394;SDS011;5753;54.402;10.220;2022-10-15T06:53:40;27.23;;;16.13;;
11394;SDS011;5753;54.402;10.220;2022-10-15T06:56:07;31.52;;;18.60;;
11394;SDS011;5753;54.402;10.220;2022-10-15T06:58:33;31.42;;;20.83;;
11394;SDS011;5753;54.402;10.220;2022-10-15T07:01:04;33.78;;;19.75;;
11394;SDS011;5753;54.402;10.220;2022-10-15T07:03:31;27.67;;;17.73;;
11394;SDS011;5753;54.402;10.220;2022-10-15T07:06:02;31.00;;;21.20;;
11394;SDS011;5753;54.402;10.220;2022-10-15T07:08:30;34.28;;;18.63;;
11394;SDS011;5753;54.402;10.220;2022-10-15T07:10:57;33.28;;;22.98;;
11394;SDS011;5753;54.402;10.220;2022-10-15T07:13:25;37.60;;;24.42;;
11394;SDS011;5753;54.402;10.220;2022-10-15T07:15:51;38.50;;;23.70;;
11394;SDS011;5753;54.402;10.220;2022-10-15T07:18:20;33.45;;;19.90;;
11394;SDS011;5753;54.402;10.220;2022-10-15T07:20:47;37.33;;;22.00;;
11394;SDS011;5753;54.402;10.220;2022-10-15T07:23:13;32.15;;;24.02;;
11394;SDS011;5753;54.402;10.220;2022-10-15T07:25:39;32.10;;;19.10;;
11394;SDS011;5753;54.402;10.220;2022-10-15T07:28:05;38.63;;;23.52;;
11394;SDS011;5753;54.402;10.220;2022-10-15T07:30:31;38.45;;;24.00;;
11394;SDS011;5753;54.402;10.220;2022-10-15T07:32:58;41.53;;;27.08;;
11394;SDS011;5753;54.402;10.220;2022-10-15T07:35:24;38.50;;;24.67;;
11394;SDS011;5753;54.402;10.220;2022-10-15T07:37:51;39.03;;;24.02;;
11394;SDS011;5753;54.402;10.220;2022-10-15T07:40:17;34.85;;;22.45;;
11394;SDS011;5753;54.402;10.220;2022-10-15T07:42:44;40.83;;;24.40;;
11394;SDS011;5753;54.402;10.220;2022-10-15T07:45:16;41.23;;;24.70;;
11394;SDS011;5753;54.402;10.220;2022-10-15T07:47:42;27.48;;;16.38;;
11394;SDS011;5753;54.402;10.220;2022-10-15T07:50:08;32.97;;;21.75;;
11394;SDS011;5753;54.402;10.220;2022-10-15T07:52:34;37.10;;;21.33;;
11394;SDS011;5753;54.402;10.220;2022-10-15T07:55:00;40.38;;;22.73;;
11394;SDS011;5753;54.402;10.220;2022-10-15T07:57:27;41.95;;;24.92;;
11394;SDS011;5753;54.402;10.220;2022-10-15T07:59:53;36.22;;;20.63;;
11394;SDS011;5753;54.402;10.220;2022-10-15T08:02:19;41.83;;;21.15;;
11394;SDS011;5753;54.402;10.220;2022-10-15T08:04:46;39.47;;;23.38;;
11394;SDS011;5753;54.402;10.220;2022-10-15T08:07:12;39.05;;;19.63;;
11394;SDS011;5753;54.402;10.220;2022-10-15T08:09:38;38.13;;;22.48;;
11394;SDS011;5753;54.402;10.220;2022-10-15T08:12:04;37.42;;;23.73;;
11394;SDS011;5753;54.402;10.220;2022-10-15T08:14:31;33.42;;;22.15;;
11394;SDS011;5753;54.402;10.220;2022-10-15T08:16:58;35.40;;;20.33;;
11394;SDS011;5753;54.402;10.220;2022-10-15T08:19:26;41.17;;;20.23;;
11394;SDS011;5753;54.402;10.220;2022-10-15T08:21:53;39.53;;;21.98;;
11394;SDS011;5753;54.402;10.220;2022-10-15T08:24:19;49.30;;;24.98;;
11394;SDS011;5753;54.402;10.220;2022-10-15T08:26:45;47.15;;;22.73;;
11394;SDS011;5753;54.402;10.220;2022-10-15T08:29:11;37.50;;;23.75;;
11394;SDS011;5753;54.402;10.220;2022-10-15T08:31:38;43.88;;;28.83;;
11394;SDS011;5753;54.402;10.220;2022-10-15T08:34:04;44.90;;;26.95;;
11394;SDS011;5753;54.402;10.220;2022-10-15T08:36:30;42.92;;;23.42;;
11394;SDS011;5753;54.402;10.220;2022-10-15T08:38:56;46.35;;;26.35;;
11394;SDS011;5753;54.402;10.220;2022-10-15T08:41:25;46.78;;;25.73;;
11394;SDS011;5753;54.402;10.220;2022-10-15T08:46:24;43.40;;;25.45;;
11394;SDS011;5753;54.402;10.220;2022-10-15T08:49:24;42.45;;;23.70;;
11394;SDS011;5753;54.402;10.220;2022-10-15T08:52:13;43.40;;;25.67;;
11394;SDS011;5753;54.402;10.220;2022-10-15T08:54:45;43.67;;;25.42;;
11394;SDS011;5753;54.402;10.220;2022-10-15T09:00:28;47.15;;;28.65;;
11394;SDS011;5753;54.402;10.220;2022-10-15T09:05:32;49.88;;;26.40;;
11394;SDS011;5753;54.402;10.220;2022-10-15T09:08:11;48.22;;;24.73;;
11394;SDS011;5753;54.402;10.220;2022-10-15T09:10:54;48.65;;;23.83;;
11394;SDS011;5753;54.402;10.220;2022-10-15T09:13:33;37.55;;;20.95;;
11394;SDS011;5753;54.402;10.220;2022-10-15T09:16:11;30.30;;;19.85;;
11394;SDS011;5753;54.402;10.220;2022-10-15T09:18:37;37.97;;;23.17;;
11394;SDS011;5753;54.402;10.220;2022-10-15T09:21:08;43.33;;;22.90;;
11394;SDS011;5753;54.402;10.220;2022-10-15T09:23:37;41.28;;;20.80;;
11394;SDS011;5753;54.402;10.220;2022-10-15T09:29:02;44.10;;;24.58;;
11394;SDS011;5753;54.402;10.220;2022-10-15T09:31:37;48.72;;;24.55;;
11394;SDS011;5753;54.402;10.220;2022-10-15T09:34:12;38.58;;;22.95;;
11394;SDS011;5753;54.402;10.220;2022-10-15T09:36:49;34.53;;;23.85;;
11394;SDS011;5753;54.402;10.220;2022-10-15T09:44:43;42.80;;;21.90;;
11394;SDS011;5753;54.402;10.220;2022-10-15T09:47:30;29.65;;;17.13;;
11394;SDS011;5753;54.402;10.220;2022-10-15T09:49:58;33.65;;;22.65;;
11394;SDS011;5753;54.402;10.220;2022-10-15T09:57:53;44.55;;;24.65;;
11394;SDS011;5753;54.402;10.220;2022-10-15T10:00:22;36.50;;;20.15;;
11394;SDS011;5753;54.402;10.220;2022-10-15T10:03:05;32.63;;;22.20;;
11394;SDS011;5753;54.402;10.220;2022-10-15T10:05:38;36.13;;;22.08;;
11394;SDS011;5753;54.402;10.220;2022-10-15T10:10:41;41.50;;;24.15;;
11394;SDS011;5753;54.402;10.220;2022-10-15T10:13:21;44.33;;;19.80;;
11394;SDS011;5753;54.402;10.220;2022-10-15T10:15:48;48.65;;;24.55;;
11394;SDS011;5753;54.402;10.220;2022-10-15T10:18:22;45.67;;;22.98;;
11394;SDS011;5753;54.402;10.220;2022-10-15T10:20:56;38.42;;;23.13;;
11394;SDS011;5753;54.402;10.220;2022-10-15T10:23:33;33.38;;;19.38;;
11394;SDS011;5753;54.402;10.220;2022-10-15T10:26:04;33.38;;;21.95;;
11394;SDS011;5753;54.402;10.220;2022-10-15T10:31:14;36.60;;;19.25;;
11394;SDS011;5753;54.402;10.220;2022-10-15T10:36:07;47.55;;;21.98;;
11394;SDS011;5753;54.402;10.220;2022-10-15T10:41:51;31.10;;;20.98;;
11394;SDS011;5753;54.402;10.220;2022-10-15T10:52:07;45.55;;;22.45;;
11394;SDS011;5753;54.402;10.220;2022-10-15T10:54:43;40.58;;;26.15;;
11394;SDS011;5753;54.402;10.220;2022-10-15T10:57:10;37.20;;;24.08;;
11394;SDS011;5753;54.402;10.220;2022-10-15T10:59:47;36.90;;;21.65;;
11394;SDS011;5753;54.402;10.220;2022-10-15T11:02:16;33.20;;;23.27;;
11394;SDS011;5753;54.402;10.220;2022-10-15T11:04:42;34.65;;;23.00;;
11394;SDS011;5753;54.402;10.220;2022-10-15T11:10:06;37.47;;;23.50;;
11394;SDS011;5753;54.402;10.220;2022-10-15T11:15:08;33.85;;;20.60;;
11394;SDS011;5753;54.402;10.220;2022-10-15T11:23:29;38.38;;;23.67;;
11394;SDS011;5753;54.402;10.220;2022-10-15T11:39:24;29.20;;;19.80;;
11394;SDS011;5753;54.402;10.220;2022-10-15T11:55:45;25.02;;;16.55;;
11394;SDS011;5753;54.402;10.220;2022-10-15T12:01:01;21.05;;;16.20;;
11394;SDS011;5753;54.402;10.220;2022-10-15T12:04:26;27.35;;;18.95;;
11394;SDS011;5753;54.402;10.220;2022-10-15T12:06:58;23.90;;;13.52;;
11394;SDS011;5753;54.402;10.220;2022-10-15T12:09:34;26.35;;;15.57;;
11394;SDS011;5753;54.402;10.220;2022-10-15T12:12:40;23.67;;;14.48;;
11394;SDS011;5753;54.402;10.220;2022-10-15T12:15:03;24.88;;;14.02;;
11394;SDS011;5753;54.402;10.220;2022-10-15T12:17:55;28.27;;;15.70;;
11394;SDS011;5753;54.402;10.220;2022-10-15T12:20:22;24.60;;;17.48;;
11394;SDS011;5753;54.402;10.220;2022-10-15T12:30:29;26.63;;;13.43;;
11394;SDS011;5753;54.402;10.220;2022-10-15T12:36:03;18.65;;;14.35;;
11394;SDS011;5753;54.402;10.220;2022-10-15T12:38:49;16.55;;;13.45;;
11394;SDS011;5753;54.402;10.220;2022-10-15T12:41:17;17.73;;;13.10;;
11394;SDS011;5753;54.402;10.220;2022-10-15T12:43:44;23.35;;;12.77;;
11394;SDS011;5753;54.402;10.220;2022-10-15T12:46:18;16.40;;;11.35;;
11394;SDS011;5753;54.402;10.220;2022-10-15T12:48:44;18.08;;;10.85;;
11394;SDS011;5753;54.402;10.220;2022-10-15T12:51:27;17.00;;;12.75;;
11394;SDS011;5753;54.402;10.220;2022-10-15T12:56:24;18.23;;;13.63;;
11394;SDS011;5753;54.402;10.220;2022-10-15T12:59:04;18.23;;;13.05;;
11394;SDS011;5753;54.402;10.220;2022-10-15T13:01:57;18.20;;;11.13;;
11394;SDS011;5753;54.402;10.220;2022-10-15T13:04:23;21.55;;;12.60;;
11394;SDS011;5753;54.402;10.220;2022-10-15T13:07:02;13.35;;;9.70;;
11394;SDS011;5753;54.402;10.220;2022-10-15T13:09:29;14.98;;;11.52;;
11394;SDS011;5753;54.402;10.220;2022-10-15T13:11:56;20.20;;;11.60;;
11394;SDS011;5753;54.402;10.220;2022-10-15T13:17:12;15.55;;;11.43;;
11394;SDS011;5753;54.402;10.220;2022-10-15T13:19:46;17.17;;;9.27;;
11394;SDS011;5753;54.402;10.220;2022-10-15T13:22:24;15.85;;;8.57;;
11394;SDS011;5753;54.402;10.220;2022-10-15T13:24:52;12.23;;;10.25;;
11394;SDS011;5753;54.402;10.220;2022-10-15T13:32:41;14.93;;;9.23;;
11394;SDS011;5753;54.402;10.220;2022-10-15T13:35:15;11.15;;;7.25;;
11394;SDS011;5753;54.402;10.220;2022-10-15T13:37:45;13.27;;;7.45;;
11394;SDS011;5753;54.402;10.220;2022-10-15T13:40:22;11.55;;;8.38;;
11394;SDS011;5753;54.402;10.220;2022-10-15T13:43:00;11.02;;;7.45;;
11394;SDS011;5753;54.402;10.220;2022-10-15T13:45:44;15.93;;;9.57;;
11394;SDS011;5753;54.402;10.220;2022-10-15T13:48:11;7.43;;;6.63;;
11394;SDS011;5753;54.402;10.220;2022-10-15T13:50:45;9.88;;;8.85;;
11394;SDS011;5753;54.402;10.220;2022-10-15T13:55:53;11.60;;;5.35;;
11394;SDS011;5753;54.402;10.220;2022-10-15T14:01:06;7.38;;;5.15;;
11394;SDS011;5753;54.402;10.220;2022-10-15T14:03:34;9.13;;;6.78;;
11394;SDS011;5753;54.402;10.220;2022-10-15T14:06:15;6.22;;;4.75;;
11394;SDS011;5753;54.402;10.220;2022-10-15T14:08:44;5.47;;;4.82;;
11394;SDS011;5753;54.402;10.220;2022-10-15T14:11:15;8.60;;;4.82;;
11394;SDS011;5753;54.402;10.220;2022-10-15T14:13:44;7.65;;;4.28;;
11394;SDS011;5753;54.402;10.220;2022-10-15T14:18:51;6.30;;;4.40;;
11394;SDS011;5753;54.402;10.220;2022-10-15T14:21:22;10.40;;;5.45;;
11394;SDS011;5753;54.402;10.220;2022-10-15T14:24:01;5.65;;;4.57;;
11394;SDS011;5753;54.402;10.220;2022-10-15T14:26:36;9.65;;;5.47;;
11394;SDS011;5753;54.402;10.220;2022-10-15T14:29:03;11.02;;;5.78;;
11394;SDS011;5753;54.402;10.220;2022-10-15T14:34:01;7.45;;;4.32;;
11394;SDS011;5753;54.402;10.220;2022-10-15T14:36:28;10.73;;;4.88;;
11394;SDS011;5753;54.402;10.220;2022-10-15T14:39:15;14.63;;;6.40;;
11394;SDS011;5753;54.402;10.220;2022-10-15T14:42:00;7.80;;;5.13;;
11394;SDS011;5753;54.402;10.220;2022-10-15T14:47:29;9.45;;;4.97;;
11394;SDS011;5753;54.402;10.220;2022-10-15T14:49:56;30.55;;;5.97;;
11394;SDS011;5753;54.402;10.220;2022-10-15T14:52:26;7.07;;;4.55;;
11394;SDS011;5753;54.402;10.220;2022-10-15T14:55:11;6.70;;;4.95;;
11394;SDS011;5753;54.402;10.220;2022-10-15T14:57:43;9.25;;;5.53;;
11394;SDS011;5753;54.402;10.220;2022-10-15T15:02:51;13.23;;;4.80;;
11394;SDS011;5753;54.402;10.220;2022-10-15T15:05:22;7.43;;;4.57;;
11394;SDS011;5753;54.402;10.220;2022-10-15T15:07:52;7.57;;;5.72;;
11394;SDS011;5753;54.402;10.220;2022-10-15T15:10:21;7.47;;;4.28;;
11394;SDS011;5753;54.402;10.220;2022-10-15T15:12:50;11.07;;;4.68;;
11394;SDS011;5753;54.402;10.220;2022-10-15T15:15:19;12.35;;;5.90;;
11394;SDS011;5753;54.402;10.220;2022-10-15T15:17:47;4.72;;;3.72;;
11394;SDS011;5753;54.402;10.220;2022-10-15T15:20:14;5.85;;;5.18;;
11394;SDS011;5753;54.402;10.220;2022-10-15T15:22:44;5.20;;;4.00;;
11394;SDS011;5753;54.402;10.220;2022-10-15T15:25:34;7.53;;;4.22;;
11394;SDS011;5753;54.402;10.220;2022-10-15T15:28:01;7.20;;;4.15;;
11394;SDS011;5753;54.402;10.220;2022-10-15T15:30:29;4.57;;;3.88;;
11394;SDS011;5753;54.402;10.220;2022-10-15T15:32:58;4.20;;;3.80;;
11394;SDS011;5753;54.402;10.220;2022-10-15T15:35:44;7.32;;;3.90;;
11394;SDS011;5753;54.402;10.220;2022-10-15T15:38:22;8.85;;;4.82;;
11394;SDS011;5753;54.402;10.220;2022-10-15T15:40:54;6.63;;;5.03;;
11394;SDS011;5753;54.402;10.220;2022-10-15T15:43:26;7.85;;;5.10;;
11394;SDS011;5753;54.402;10.220;2022-10-15T15:45:52;8.07;;;5.55;;
11394;SDS011;5753;54.402;10.220;2022-10-15T15:48:19;8.75;;;5.07;;
11394;SDS011;5753;54.402;10.220;2022-10-15T15:50:45;7.53;;;4.03;;
11394;SDS011;5753;54.402;10.220;2022-10-15T15:53:11;6.47;;;4.78;;
11394;SDS011;5753;54.402;10.220;2022-10-15T15:55:38;11.52;;;5.18;;
11394;SDS011;5753;54.402;10.220;2022-10-15T15:58:04;6.25;;;4.70;;
11394;SDS011;5753;54.402;10.220;2022-10-15T16:00:30;7.13;;;4.55;;
11394;SDS011;5753;54.402;10.220;2022-10-15T16:02:56;6.05;;;4.55;;
11394;SDS011;5753;54.402;10.220;2022-10-15T16:05:22;7.78;;;5.63;;
11394;SDS011;5753;54.402;10.220;2022-10-15T16:07:48;7.32;;;4.75;;
11394;SDS011;5753;54.402;10.220;2022-10-15T16:10:14;5.65;;;4.65;;
11394;SDS011;5753;54.402;10.220;2022-10-15T16:12:41;7.50;;;4.47;;
11394;SDS011;5753;54.402;10.220;2022-10-15T16:15:09;8.75;;;3.72;;
11394;SDS011;5753;54.402;10.220;2022-10-15T16:17:36;8.52;;;5.70;;
11394;SDS011;5753;54.402;10.220;2022-10-15T16:20:03;5.63;;;4.78;;
11394;SDS011;5753;54.402;10.220;2022-10-15T16:22:29;4.15;;;3.75;;
11394;SDS011;5753;54.402;10.220;2022-10-15T16:24:55;7.80;;;5.38;;
11394;SDS011;5753;54.402;10.220;2022-10-15T16:27:21;8.90;;;3.55;;
11394;SDS011;5753;54.402;10.220;2022-10-15T16:29:48;3.42;;;3.13;;
11394;SDS011;5753;54.402;10.220;2022-10-15T16:32:14;5.55;;;4.07;;
11394;SDS011;5753;54.402;10.220;2022-10-15T16:34:40;8.75;;;3.80;;
11394;SDS011;5753;54.402;10.220;2022-10-15T16:37:06;4.18;;;3.13;;
11394;SDS011;5753;54.402;10.220;2022-10-15T16:39:32;5.80;;;4.10;;
11394;SDS011;5753;54.402;10.220;2022-10-15T16:41:58;7.18;;;3.95;;
11394;SDS011;5753;54.402;10.220;2022-10-15T16:44:25;7.57;;;4.85;;
11394;SDS011;5753;54.402;10.220;2022-10-15T16:46:51;14.82;;;5.63;;
11394;SDS011;5753;54.402;10.220;2022-10-15T16:49:17;8.90;;;7.05;;
11394;SDS011;5753;54.402;10.220;2022-10-15T16:51:43;8.30;;;4.97;;
11394;SDS011;5753;54.402;10.220;2022-10-15T16:54:12;7.15;;;4.40;;
11394;SDS011;5753;54.402;10.220;2022-10-15T16:56:39;8.25;;;5.78;;
11394;SDS011;5753;54.402;10.220;2022-10-15T16:59:06;8.70;;;5.32;;
11394;SDS011;5753;54.402;10.220;2022-10-15T17:01:32;6.93;;;5.25;;
11394;SDS011;5753;54.402;10.220;2022-10-15T17:03:59;4.43;;;4.03;;
11394;SDS011;5753;54.402;10.220;2022-10-15T17:06:26;8.43;;;5.53;;
11394;SDS011;5753;54.402;10.220;2022-10-15T17:08:57;6.75;;;5.78;;
11394;SDS011;5753;54.402;10.220;2022-10-15T17:11:28;14.68;;;6.50;;